createdAt,value
2017-12-14T00:01:08.419Z,4.20
2017-12-14T00:03:37.818Z,4.20
2017-12-14T00:06:06.195Z,4.20
2017-12-14T00:08:34.571Z,4.20
2017-12-14T00:11:03.598Z,4.30
2017-12-14T00:13:31.995Z,4.20
2017-12-14T00:16:00.426Z,4.10
2017-12-14T00:18:28.950Z,4.10
2017-12-14T00:20:57.325Z,4.10
2017-12-14T00:23:26.557Z,4.10
2017-12-14T00:25:55.141Z,4.00
2017-12-14T00:28:23.584Z,4.10
2017-12-14T00:30:51.964Z,4.10
2017-12-14T00:33:20.478Z,4.10
2017-12-14T00:35:48.880Z,4.10
2017-12-14T00:38:17.262Z,4.20
2017-12-14T00:40:45.837Z,4.20
2017-12-14T00:43:14.275Z,4.10
2017-12-14T00:45:42.711Z,4.10
2017-12-14T00:48:11.317Z,4.00
2017-12-14T00:50:40.551Z,4.00
2017-12-14T00:53:09.409Z,4.00
2017-12-14T00:55:37.918Z,4.00
2017-12-14T00:58:06.376Z,4.00
2017-12-14T01:00:34.784Z,4.00
2017-12-14T01:03:03.517Z,4.00
2017-12-14T01:05:32.839Z,4.00
2017-12-14T01:08:01.283Z,3.90
2017-12-14T01:10:30.576Z,3.90
2017-12-14T01:12:59.134Z,3.90
2017-12-14T01:15:27.687Z,3.90
2017-12-14T01:17:56.561Z,3.90
2017-12-14T01:20:25.053Z,3.90
2017-12-14T01:22:54.217Z,3.90
2017-12-14T01:25:23.911Z,3.90
2017-12-14T01:27:52.310Z,3.90
2017-12-14T01:30:20.904Z,3.90
2017-12-14T01:32:50.296Z,3.80
2017-12-14T01:35:18.685Z,3.80
2017-12-14T01:37:47.852Z,3.80
2017-12-14T01:40:16.276Z,3.80
2017-12-14T01:42:45.465Z,3.70
2017-12-14T01:45:13.856Z,3.70
2017-12-14T01:47:42.345Z,3.70
2017-12-14T01:50:10.735Z,3.80
2017-12-14T01:52:39.105Z,3.90
2017-12-14T01:55:07.901Z,3.90
2017-12-14T01:57:36.276Z,3.90
2017-12-14T02:00:04.647Z,3.80
2017-12-14T02:02:33.211Z,3.80
2017-12-14T02:05:02.365Z,3.70
2017-12-14T02:07:30.771Z,3.70
2017-12-14T02:09:59.344Z,3.70
2017-12-14T02:12:27.703Z,3.60
2017-12-14T02:14:56.381Z,3.60
2017-12-14T02:17:26.150Z,3.70
2017-12-14T02:19:55.333Z,3.70
2017-12-14T02:22:23.746Z,3.70
2017-12-14T02:24:53.415Z,3.80
2017-12-14T02:27:21.812Z,3.80
2017-12-14T02:29:50.970Z,3.80
2017-12-14T02:32:19.664Z,3.80
2017-12-14T02:34:48.036Z,3.70
2017-12-14T02:37:16.413Z,3.80
2017-12-14T02:39:45.002Z,3.80
2017-12-14T02:42:13.372Z,3.80
2017-12-14T02:44:43.319Z,3.70
2017-12-14T02:47:12.519Z,3.60
2017-12-14T02:49:41.671Z,3.60
2017-12-14T02:52:10.035Z,3.60
2017-12-14T02:54:38.461Z,3.60
2017-12-14T02:57:06.933Z,3.60
2017-12-14T02:59:35.322Z,3.70
2017-12-14T03:02:04.062Z,3.80
2017-12-14T03:04:32.484Z,3.70
2017-12-14T03:07:00.852Z,3.70
2017-12-14T03:09:29.387Z,3.70
2017-12-14T03:11:57.770Z,3.70
2017-12-14T03:14:26.165Z,3.70
2017-12-14T03:16:54.694Z,3.70
2017-12-14T03:19:24.205Z,3.70
2017-12-14T03:21:52.591Z,3.70
2017-12-14T03:24:21.879Z,3.70
2017-12-14T03:26:50.264Z,3.70
2017-12-14T03:29:19.424Z,3.70
2017-12-14T03:31:47.864Z,3.70
2017-12-14T03:34:16.324Z,3.70
2017-12-14T03:36:45.479Z,3.90
2017-12-14T03:39:14.305Z,3.90
2017-12-14T03:41:43.483Z,3.90
2017-12-14T03:44:11.890Z,3.80
2017-12-14T03:46:42.077Z,3.60
2017-12-14T03:49:10.518Z,3.60
2017-12-14T03:51:38.932Z,3.30
2017-12-14T03:54:07.515Z,3.10
2017-12-14T03:56:35.882Z,3.00
2017-12-14T03:59:04.386Z,2.90
2017-12-14T04:01:32.901Z,2.70
2017-12-14T04:04:02.045Z,2.50
2017-12-14T04:06:30.468Z,2.50
2017-12-14T04:08:59.707Z,2.20
2017-12-14T04:11:28.230Z,2.20
2017-12-14T04:13:56.689Z,2.10
2017-12-14T04:16:25.447Z,1.90
2017-12-14T04:18:54.174Z,1.90
2017-12-14T04:21:22.614Z,1.80
2017-12-14T04:23:51.208Z,1.80
2017-12-14T04:26:19.642Z,1.70
2017-12-14T04:28:48.097Z,1.80
2017-12-14T04:31:16.640Z,1.80
2017-12-14T04:33:45.056Z,1.90
2017-12-14T04:36:13.667Z,1.90
2017-12-14T04:38:42.993Z,1.90
2017-12-14T04:41:11.376Z,1.90
2017-12-14T04:43:41.388Z,2.00
2017-12-14T04:46:09.923Z,2.10
2017-12-14T04:48:38.387Z,2.10
2017-12-14T04:51:07.683Z,2.20
2017-12-14T04:53:36.145Z,2.20
2017-12-14T04:56:04.585Z,2.30
2017-12-14T04:58:33.796Z,2.40
2017-12-14T05:01:03.119Z,2.40
2017-12-14T05:03:31.542Z,2.30
2017-12-14T05:05:59.995Z,2.40
2017-12-14T05:08:28.572Z,2.50
2017-12-14T05:10:56.997Z,2.50
2017-12-14T05:13:25.435Z,2.60
2017-12-14T05:15:53.936Z,2.70
2017-12-14T05:18:22.360Z,2.70
2017-12-14T05:20:51.871Z,2.90
2017-12-14T05:23:21.109Z,3.00
2017-12-14T05:25:49.566Z,3.00
2017-12-14T05:28:18.034Z,3.20
2017-12-14T05:30:47.613Z,3.10
2017-12-14T05:33:16.050Z,3.10
2017-12-14T05:35:44.528Z,3.10
2017-12-14T05:38:13.595Z,3.20
2017-12-14T05:40:42.789Z,3.10
2017-12-14T05:43:12.023Z,2.90
2017-12-14T05:45:41.441Z,2.80
2017-12-14T05:48:09.867Z,2.80
2017-12-14T05:50:39.118Z,2.70
2017-12-14T05:53:08.985Z,2.60
2017-12-14T05:55:38.208Z,2.60
2017-12-14T05:58:06.627Z,2.60
2017-12-14T06:00:35.124Z,2.50
2017-12-14T06:03:03.631Z,2.50
2017-12-14T06:05:32.118Z,2.50
2017-12-14T06:08:00.602Z,2.40
2017-12-14T06:10:29.038Z,2.30
2017-12-14T06:12:57.533Z,2.10
2017-12-14T06:15:27.134Z,1.90
2017-12-14T06:17:55.581Z,1.90
2017-12-14T06:20:24.002Z,1.80
2017-12-14T06:22:52.756Z,1.70
2017-12-14T06:25:21.213Z,1.50
2017-12-14T06:27:49.715Z,1.50
2017-12-14T06:30:18.280Z,1.50
2017-12-14T06:32:46.727Z,1.60
2017-12-14T06:35:15.938Z,1.60
2017-12-14T06:37:44.392Z,1.60
2017-12-14T06:40:13.131Z,1.60
2017-12-14T06:42:41.558Z,1.60
2017-12-14T06:45:10.070Z,1.60
2017-12-14T06:47:39.567Z,1.60
2017-12-14T06:50:08.005Z,1.60
2017-12-14T06:52:36.920Z,1.60
2017-12-14T06:55:06.137Z,1.70
2017-12-14T06:57:34.563Z,1.60
2017-12-14T07:00:03.155Z,1.70
2017-12-14T07:02:31.611Z,1.70
2017-12-14T07:05:00.105Z,1.70
2017-12-14T07:07:28.710Z,1.80
2017-12-14T07:09:57.129Z,1.90
2017-12-14T07:12:25.605Z,2.00
2017-12-14T07:14:54.402Z,2.00
2017-12-14T07:17:22.881Z,2.10
2017-12-14T07:19:51.340Z,2.10
2017-12-14T07:22:20.760Z,2.20
2017-12-14T07:24:49.413Z,2.20
2017-12-14T07:27:18.686Z,2.20
2017-12-14T07:29:47.454Z,2.20
2017-12-14T07:32:15.887Z,2.30
2017-12-14T07:34:44.341Z,2.40
2017-12-14T07:37:12.966Z,2.40
2017-12-14T07:39:42.207Z,2.50
2017-12-14T07:42:22.729Z,2.50
2017-12-14T07:44:51.580Z,2.60
2017-12-14T07:47:32.307Z,2.70
2017-12-14T07:50:00.748Z,2.70
2017-12-14T07:52:29.208Z,2.70
2017-12-14T07:54:57.777Z,2.80
2017-12-14T07:57:26.211Z,2.70
2017-12-14T07:59:55.433Z,2.70
2017-12-14T08:02:23.952Z,2.70
2017-12-14T08:04:52.500Z,2.80
2017-12-14T08:07:20.945Z,2.90
2017-12-14T08:09:50.186Z,2.90
2017-12-14T08:12:18.589Z,2.90
2017-12-14T08:14:47.025Z,2.80
2017-12-14T08:17:15.692Z,2.90
2017-12-14T08:19:44.902Z,2.90
2017-12-14T08:22:13.394Z,2.90
2017-12-14T08:24:41.998Z,3.00
2017-12-14T08:27:11.066Z,2.90
2017-12-14T08:29:39.557Z,3.10
2017-12-14T08:32:08.421Z,3.20
2017-12-14T08:34:37.626Z,3.10
2017-12-14T08:37:06.839Z,3.20
2017-12-14T08:39:35.327Z,3.20
2017-12-14T08:42:03.797Z,3.20
2017-12-14T08:44:32.227Z,3.10
2017-12-14T08:47:00.750Z,3.10
2017-12-14T08:49:29.190Z,3.20
2017-12-14T08:51:57.625Z,3.40
2017-12-14T08:54:26.368Z,3.60
2017-12-14T08:56:54.949Z,3.80
2017-12-14T08:59:23.389Z,3.90
2017-12-14T09:01:51.988Z,3.90
2017-12-14T09:04:20.412Z,4.00
2017-12-14T09:06:50.583Z,3.80
2017-12-14T09:09:19.041Z,3.80
2017-12-14T09:11:47.487Z,3.60
2017-12-14T09:14:16.708Z,3.60
2017-12-14T09:16:45.253Z,3.60
2017-12-14T09:19:13.987Z,3.60
2017-12-14T09:21:42.417Z,3.60
2017-12-14T09:24:11.240Z,3.50
2017-12-14T09:26:39.733Z,3.50
2017-12-14T09:29:08.398Z,3.60
2017-12-14T09:31:37.672Z,3.70
2017-12-14T09:34:06.116Z,3.70
2017-12-14T09:36:34.606Z,3.70
2017-12-14T09:39:03.346Z,3.70
2017-12-14T09:41:32.611Z,3.70
2017-12-14T09:44:01.074Z,3.70
2017-12-14T09:46:29.692Z,3.80
2017-12-14T09:48:58.200Z,3.90
2017-12-14T09:51:26.735Z,4.30
2017-12-14T09:53:55.456Z,4.50
2017-12-14T09:56:24.754Z,4.20
2017-12-14T09:58:54.089Z,4.10
2017-12-14T10:01:22.964Z,4.10
2017-12-14T10:03:52.172Z,4.10
2017-12-14T10:06:20.627Z,4.10
2017-12-14T10:08:49.416Z,4.10
2017-12-14T10:11:17.871Z,4.10
2017-12-14T10:13:46.290Z,3.90
2017-12-14T10:16:14.975Z,3.80
2017-12-14T10:18:44.238Z,3.90
2017-12-14T10:21:12.792Z,3.90
2017-12-14T10:23:41.869Z,4.00
2017-12-14T10:26:10.366Z,4.30
2017-12-14T10:28:38.856Z,4.10
2017-12-14T10:31:08.316Z,3.90
2017-12-14T10:33:37.525Z,4.10
2017-12-14T10:36:05.976Z,4.10
2017-12-14T10:38:35.484Z,4.30
2017-12-14T10:41:03.980Z,4.70
2017-12-14T10:43:33.284Z,4.60
2017-12-14T10:46:01.984Z,4.60
2017-12-14T10:48:30.457Z,4.50
2017-12-14T10:50:58.912Z,4.50
2017-12-14T10:53:27.597Z,4.50
2017-12-14T10:55:56.087Z,4.60
2017-12-14T10:58:24.623Z,4.50
2017-12-14T11:00:59.638Z,4.50
2017-12-14T11:03:28.108Z,4.40
2017-12-14T11:05:56.570Z,4.40
2017-12-14T11:08:26.017Z,4.30
2017-12-14T11:10:54.480Z,4.30
2017-12-14T11:13:22.950Z,4.30
2017-12-14T11:15:51.837Z,4.20
2017-12-14T11:18:20.337Z,4.20
2017-12-14T11:20:49.184Z,4.30
2017-12-14T11:23:18.541Z,4.20
2017-12-14T11:25:47.044Z,4.20
2017-12-14T11:28:15.496Z,4.20
2017-12-14T11:30:44.223Z,4.20
2017-12-14T11:33:13.063Z,4.20
2017-12-14T11:35:41.499Z,4.10
2017-12-14T11:38:10.029Z,4.10
2017-12-14T11:40:38.509Z,4.10
2017-12-14T11:43:06.984Z,4.00
2017-12-14T11:45:36.254Z,3.80
2017-12-14T11:48:04.758Z,3.80
2017-12-14T11:50:33.238Z,3.70
2017-12-14T11:53:01.933Z,3.70
2017-12-14T11:55:30.398Z,3.50
2017-12-14T11:57:59.516Z,3.50
2017-12-14T12:00:28.110Z,3.50
2017-12-14T12:02:57.377Z,3.50
2017-12-14T12:05:25.876Z,3.50
2017-12-14T12:07:54.402Z,3.50
2017-12-14T12:10:23.219Z,3.50
2017-12-14T12:12:51.762Z,3.50
2017-12-14T12:15:20.689Z,3.40
2017-12-14T12:17:49.153Z,3.40
2017-12-14T12:20:18.246Z,3.40
2017-12-14T12:22:47.205Z,3.40
2017-12-14T12:25:16.112Z,3.40
2017-12-14T12:27:44.759Z,3.40
2017-12-14T12:30:13.407Z,3.40
2017-12-14T12:32:42.654Z,3.50
2017-12-14T12:35:11.368Z,3.50
2017-12-14T12:37:40.050Z,3.50
2017-12-14T12:40:08.488Z,3.50
2017-12-14T12:42:36.951Z,3.60
2017-12-14T12:45:06.264Z,3.60
2017-12-14T12:47:34.841Z,3.60
2017-12-14T12:50:03.386Z,3.60
2017-12-14T12:52:32.103Z,3.60
2017-12-14T12:55:00.545Z,3.70
2017-12-14T12:57:28.988Z,3.80
2017-12-14T12:59:58.443Z,3.80
2017-12-14T13:02:26.899Z,3.90
2017-12-14T13:04:55.378Z,3.90
2017-12-14T13:07:24.158Z,4.00
2017-12-14T13:09:54.116Z,4.00
2017-12-14T13:12:22.713Z,4.00
2017-12-14T13:14:52.069Z,4.10
2017-12-14T13:17:21.317Z,4.10
2017-12-14T13:19:50.527Z,4.10
2017-12-14T13:22:20.014Z,4.10
2017-12-14T13:24:49.463Z,4.10
2017-12-14T13:27:17.956Z,4.10
2017-12-14T13:29:46.484Z,4.10
2017-12-14T13:32:15.701Z,4.20
2017-12-14T13:34:44.135Z,4.20
2017-12-14T13:37:13.331Z,4.30
2017-12-14T13:39:41.758Z,4.30
2017-12-14T13:42:10.208Z,4.30
2017-12-14T13:44:38.818Z,4.30
2017-12-14T13:47:07.302Z,4.20
2017-12-14T13:49:36.725Z,4.20
2017-12-14T13:52:06.158Z,4.20
2017-12-14T13:54:34.644Z,4.20
2017-12-14T13:57:03.076Z,4.20
2017-12-14T13:59:31.599Z,4.10
2017-12-14T14:02:00.564Z,4.00
2017-12-14T14:04:29.000Z,4.00
2017-12-14T14:06:58.721Z,3.80
2017-12-14T14:09:28.162Z,3.60
2017-12-14T14:11:57.739Z,3.60
2017-12-14T14:14:27.194Z,3.40
2017-12-14T14:16:55.626Z,3.40
2017-12-14T14:19:24.053Z,3.40
2017-12-14T14:21:52.665Z,3.40
2017-12-14T14:24:21.058Z,3.40
2017-12-14T14:26:50.271Z,3.40
2017-12-14T14:29:18.871Z,3.40
2017-12-14T14:31:47.327Z,3.40
2017-12-14T14:34:16.542Z,3.30
2017-12-14T14:36:45.183Z,3.30
2017-12-14T14:39:14.084Z,3.30
2017-12-14T14:41:42.545Z,3.30
2017-12-14T14:44:11.128Z,3.20
2017-12-14T14:46:39.533Z,3.20
2017-12-14T14:49:08.032Z,3.20
2017-12-14T14:51:36.854Z,3.20
2017-12-14T14:54:05.960Z,3.20
2017-12-14T14:56:35.204Z,3.20
2017-12-14T14:59:05.688Z,3.20
2017-12-14T15:01:34.158Z,3.20
2017-12-14T15:04:02.667Z,3.10
2017-12-14T15:06:31.202Z,3.20
2017-12-14T15:08:59.761Z,3.20
2017-12-14T15:11:29.972Z,3.20
2017-12-14T15:13:59.432Z,3.20
2017-12-14T15:16:29.314Z,3.30
2017-12-14T15:18:58.348Z,3.20
2017-12-14T15:21:28.496Z,3.30
2017-12-14T15:23:58.053Z,3.30
2017-12-14T15:26:28.391Z,3.20
2017-12-14T15:28:57.503Z,3.20
2017-12-14T15:31:27.146Z,3.20
2017-12-14T15:33:57.140Z,3.10
2017-12-14T15:36:26.123Z,3.10
2017-12-14T15:38:55.028Z,3.20
2017-12-14T15:41:24.189Z,3.20
2017-12-14T15:43:52.865Z,3.20
2017-12-14T15:46:21.532Z,3.20
2017-12-14T15:48:50.240Z,3.20
2017-12-14T15:51:18.976Z,3.10
2017-12-14T15:53:47.864Z,3.10
2017-12-14T15:56:16.899Z,3.10
2017-12-14T15:58:46.851Z,3.10
2017-12-14T16:01:15.289Z,3.10
2017-12-14T16:03:43.937Z,3.10
2017-12-14T16:06:12.708Z,3.10
2017-12-14T16:08:42.103Z,3.10
2017-12-14T16:11:10.844Z,3.10
2017-12-14T16:13:39.257Z,3.10
2017-12-14T16:16:08.633Z,3.10
2017-12-14T16:18:37.380Z,3.20
2017-12-14T16:21:05.788Z,3.10
2017-12-14T16:23:35.858Z,3.10
2017-12-14T16:26:04.600Z,3.10
2017-12-14T16:28:33.014Z,3.10
2017-12-14T16:31:01.506Z,3.10
2017-12-14T16:33:29.996Z,3.10
2017-12-14T16:35:58.415Z,3.20
2017-12-14T16:38:26.806Z,3.20
2017-12-14T16:40:55.535Z,3.20
2017-12-14T16:43:24.644Z,3.10
2017-12-14T16:45:53.908Z,3.00
2017-12-14T16:48:22.826Z,3.00
2017-12-14T16:50:51.362Z,3.00
2017-12-14T16:53:19.780Z,3.00
2017-12-14T16:55:48.312Z,3.00
2017-12-14T16:58:16.712Z,3.00
2017-12-14T17:00:45.176Z,3.00
2017-12-14T17:03:13.816Z,2.90
2017-12-14T17:05:42.265Z,2.90
2017-12-14T17:08:11.601Z,2.80
2017-12-14T17:10:40.177Z,2.80
2017-12-14T17:13:08.594Z,2.80
2017-12-14T17:15:37.039Z,2.80
2017-12-14T17:18:06.247Z,2.80
2017-12-14T17:20:34.659Z,2.80
2017-12-14T17:23:03.066Z,2.80
2017-12-14T17:25:31.680Z,2.80
2017-12-14T17:28:00.130Z,2.90
2017-12-14T17:30:28.542Z,2.90
2017-12-14T17:32:57.349Z,2.90
2017-12-14T17:35:27.439Z,2.90
2017-12-14T17:37:55.850Z,2.90
2017-12-14T17:40:25.233Z,2.90
2017-12-14T17:42:53.635Z,2.90
2017-12-14T17:45:23.302Z,2.90
2017-12-14T17:47:51.868Z,2.90
2017-12-14T17:50:20.271Z,2.90
2017-12-14T17:52:48.758Z,2.80
2017-12-14T17:55:17.283Z,2.80
2017-12-14T17:57:46.011Z,2.80
2017-12-14T18:00:14.434Z,2.80
2017-12-14T18:02:42.907Z,2.70
2017-12-14T18:05:11.362Z,2.70
2017-12-14T18:07:40.475Z,2.70
2017-12-14T18:10:09.076Z,2.80
2017-12-14T18:12:38.520Z,2.80
2017-12-14T18:15:08.036Z,2.80
2017-12-14T18:17:36.502Z,2.80
2017-12-14T18:20:04.951Z,2.80
2017-12-14T18:22:34.292Z,2.80
2017-12-14T18:25:02.807Z,2.80
2017-12-14T18:27:31.576Z,2.90
2017-12-14T18:29:59.999Z,2.90
2017-12-14T18:32:28.605Z,3.00
2017-12-14T18:34:57.932Z,3.00
2017-12-14T18:37:26.426Z,3.10
2017-12-14T18:39:55.965Z,3.20
2017-12-14T18:42:27.074Z,3.10
2017-12-14T18:44:55.523Z,3.10
2017-12-14T18:47:25.383Z,3.40
2017-12-14T18:49:53.819Z,3.40
2017-12-14T18:52:24.061Z,3.30
2017-12-14T18:54:52.588Z,3.30
2017-12-14T18:57:21.783Z,3.30
2017-12-14T18:59:51.001Z,3.30
2017-12-14T19:02:19.554Z,3.30
2017-12-14T19:04:47.982Z,3.30
2017-12-14T19:07:16.402Z,3.40
2017-12-14T19:09:45.028Z,3.40
2017-12-14T19:12:13.699Z,3.40
2017-12-14T19:14:42.905Z,3.40
2017-12-14T19:17:11.474Z,3.40
2017-12-14T19:19:41.437Z,3.40
2017-12-14T19:22:09.860Z,3.40
2017-12-14T19:24:39.272Z,3.40
2017-12-14T19:27:08.466Z,3.40
2017-12-14T19:29:36.879Z,3.30
2017-12-14T19:32:05.536Z,3.40
2017-12-14T19:34:34.724Z,3.40
2017-12-14T19:37:03.238Z,3.30
2017-12-14T19:39:31.797Z,3.40
2017-12-14T19:42:00.949Z,3.40
2017-12-14T19:44:29.439Z,3.40
2017-12-14T19:46:58.007Z,3.40
2017-12-14T19:49:27.073Z,3.40
2017-12-14T19:51:55.504Z,3.40
2017-12-14T19:54:23.988Z,3.40
2017-12-14T19:56:52.428Z,3.40
2017-12-14T19:59:20.839Z,3.30
2017-12-14T20:01:49.374Z,3.30
2017-12-14T20:04:17.782Z,3.20
2017-12-14T20:06:46.963Z,3.20
2017-12-14T20:09:15.718Z,3.10
2017-12-14T20:11:44.855Z,3.10
2017-12-14T20:14:13.304Z,3.10
2017-12-14T20:16:42.543Z,3.00
2017-12-14T20:19:11.001Z,3.00
2017-12-14T20:21:40.227Z,3.00
2017-12-14T20:24:08.702Z,3.00
2017-12-14T20:26:37.173Z,3.00
2017-12-14T20:29:05.652Z,3.00
2017-12-14T20:31:34.535Z,3.00
2017-12-14T20:34:03.008Z,3.00
2017-12-14T20:36:31.449Z,3.00
2017-12-14T20:38:59.896Z,3.00
2017-12-14T20:41:28.309Z,3.00
2017-12-14T20:43:56.740Z,2.90
2017-12-14T20:46:25.574Z,2.90
2017-12-14T20:48:54.013Z,3.00
2017-12-14T20:51:23.117Z,3.00
2017-12-14T20:53:51.754Z,3.00
2017-12-14T20:56:20.196Z,3.00
2017-12-14T20:58:49.464Z,3.00
2017-12-14T21:01:18.102Z,3.00
2017-12-14T21:03:46.557Z,3.00
2017-12-14T21:06:14.975Z,3.00
2017-12-14T21:08:43.561Z,3.00
2017-12-14T21:11:12.010Z,3.00
2017-12-14T21:13:40.406Z,3.00
2017-12-14T21:16:09.007Z,3.00
2017-12-14T21:18:38.215Z,3.00
2017-12-14T21:21:07.919Z,3.00
2017-12-14T21:23:37.258Z,3.00
2017-12-14T21:26:05.667Z,3.00
2017-12-14T21:28:34.084Z,3.00
2017-12-14T21:31:03.438Z,3.00
2017-12-14T21:33:31.838Z,2.90
2017-12-14T21:36:00.274Z,3.00
2017-12-14T21:38:28.855Z,2.90
2017-12-14T21:40:57.352Z,3.00
2017-12-14T21:43:25.808Z,2.90
2017-12-14T21:45:54.431Z,3.00
2017-12-14T21:48:22.847Z,3.00
2017-12-14T21:50:52.042Z,3.00
2017-12-14T21:53:21.753Z,3.10
2017-12-14T21:55:50.969Z,3.10
2017-12-14T21:58:19.432Z,3.10
2017-12-14T22:00:48.700Z,3.10
2017-12-14T22:03:17.457Z,3.10
2017-12-14T22:05:46.082Z,3.20
2017-12-14T22:08:14.674Z,3.20
2017-12-14T22:10:43.085Z,3.20
2017-12-14T22:13:11.476Z,3.20
2017-12-14T22:15:39.922Z,3.20
2017-12-14T22:18:09.099Z,3.30
2017-12-14T22:20:37.514Z,3.20
2017-12-14T22:23:05.988Z,3.30
2017-12-14T22:25:35.196Z,3.30
2017-12-14T22:28:03.641Z,3.30
2017-12-14T22:30:33.093Z,3.30
2017-12-14T22:33:01.478Z,3.30
2017-12-14T22:35:30.439Z,3.30
2017-12-14T22:37:59.018Z,3.30
2017-12-14T22:40:27.461Z,3.40
2017-12-14T22:42:55.923Z,3.40
2017-12-14T22:45:26.284Z,3.30
2017-12-14T22:47:55.377Z,3.30
2017-12-14T22:50:24.519Z,3.40
2017-12-14T22:52:53.277Z,3.40
2017-12-14T22:55:22.976Z,3.40
2017-12-14T22:57:52.686Z,3.40
2017-12-14T23:00:24.314Z,3.40
2017-12-14T23:02:55.679Z,3.40
2017-12-14T23:05:25.051Z,3.40
2017-12-14T23:07:53.768Z,3.40
2017-12-14T23:10:22.173Z,3.30
2017-12-14T23:12:50.624Z,3.30
2017-12-14T23:15:19.271Z,3.30
2017-12-14T23:17:48.875Z,3.30
2017-12-14T23:20:17.286Z,3.30
2017-12-14T23:22:45.845Z,3.30
2017-12-14T23:25:14.264Z,3.30
2017-12-14T23:27:42.682Z,3.30
2017-12-14T23:30:12.374Z,3.20
2017-12-14T23:32:41.606Z,3.20
2017-12-14T23:35:10.035Z,3.20
2017-12-14T23:37:38.948Z,3.20
2017-12-14T23:40:08.142Z,3.10
2017-12-14T23:42:37.723Z,3.00
2017-12-14T23:45:06.184Z,3.00
2017-12-14T23:47:34.585Z,3.00
2017-12-14T23:50:02.985Z,2.90
2017-12-14T23:52:32.196Z,2.80
2017-12-14T23:55:01.383Z,2.70
2017-12-14T23:57:30.902Z,2.70
2017-12-14T23:59:59.414Z,2.70
